createdAt,value
2023-02-26T00:13:22.476Z,5.70
2023-02-26T00:28:24.880Z,6.10
2023-02-26T00:43:27.146Z,7.32
2023-02-26T00:58:29.095Z,8.77
2023-02-26T01:13:32.581Z,4.90
2023-02-26T01:28:34.917Z,11.57
2023-02-26T01:44:24.435Z,5.43
2023-02-26T01:59:26.571Z,4.70
2023-02-26T02:14:34.598Z,6.00
2023-02-26T02:30:00.372Z,6.05
2023-02-26T02:45:13.984Z,4.80
2023-02-26T03:00:18.556Z,7.07
2023-02-26T03:15:38.113Z,4.78
2023-02-26T03:30:48.397Z,5.85
2023-02-26T03:45:54.471Z,3.95
2023-02-26T04:01:03.513Z,4.85
2023-02-26T04:16:05.981Z,3.58
2023-02-26T04:31:08.178Z,4.50
2023-02-26T04:46:10.268Z,5.22
2023-02-26T05:01:13.809Z,5.78
2023-02-26T05:16:16.250Z,3.42
2023-02-26T05:31:18.280Z,4.70
2023-02-26T05:46:20.425Z,4.35
2023-02-26T06:01:22.388Z,4.53
2023-02-26T06:16:25.513Z,4.20
2023-02-26T06:31:27.905Z,5.68
2023-02-26T06:46:30.224Z,4.28
2023-02-26T07:01:32.241Z,6.32
2023-02-26T07:16:34.376Z,4.05
2023-02-26T07:31:37.336Z,4.70
2023-02-26T07:46:39.388Z,7.50
2023-02-26T08:01:41.367Z,5.18
2023-02-26T08:16:43.529Z,4.85
2023-02-26T08:31:45.704Z,7.70
2023-02-26T08:46:47.735Z,6.15
2023-02-26T09:01:49.849Z,4.30
2023-02-26T09:16:51.800Z,7.90
2023-02-26T09:31:53.847Z,4.82
2023-02-26T09:47:23.320Z,7.68
2023-02-26T10:02:43.322Z,6.65
2023-02-26T10:18:13.718Z,5.32
2023-02-26T10:33:18.715Z,15.07
2023-02-26T10:48:45.509Z,7.70
2023-02-26T11:03:51.909Z,9.13
2023-02-26T11:18:55.301Z,6.30
2023-02-26T11:34:05.095Z,4.68
2023-02-26T11:49:07.115Z,7.45
2023-02-26T12:04:12.502Z,6.90
2023-02-26T12:19:37.008Z,3.13
2023-02-26T12:34:57.493Z,6.30
2023-02-26T12:50:33.334Z,10.27
2023-02-26T13:06:03.844Z,10.00
2023-02-26T13:21:16.451Z,12.27
2023-02-26T13:36:22.123Z,9.02
2023-02-26T13:51:40.275Z,5.28
2023-02-26T14:06:44.673Z,2.95
2023-02-26T14:21:49.944Z,5.32
2023-02-26T14:37:07.190Z,7.93
2023-02-26T14:52:31.518Z,11.07
2023-02-26T15:08:02.606Z,10.02
2023-02-26T15:23:28.850Z,8.85
2023-02-26T15:38:44.078Z,11.55
2023-02-26T15:53:55.468Z,8.02
2023-02-26T16:08:58.333Z,10.68
2023-02-26T16:24:03.369Z,7.32
2023-02-26T16:39:05.304Z,10.30
2023-02-26T16:54:30.883Z,10.38
2023-02-26T17:09:43.015Z,11.15
2023-02-26T17:24:49.570Z,11.68
2023-02-26T17:39:51.655Z,16.38
2023-02-26T17:54:53.721Z,22.70
2023-02-26T18:09:55.669Z,27.10
2023-02-26T18:24:57.737Z,20.05
2023-02-26T18:39:59.693Z,14.25
2023-02-26T18:55:03.250Z,17.67
2023-02-26T19:10:09.560Z,9.65
2023-02-26T19:25:12.432Z,10.57
2023-02-26T19:40:19.657Z,9.10
2023-02-26T19:55:22.019Z,7.43
2023-02-26T20:10:24.489Z,11.88
2023-02-26T20:25:26.488Z,11.18
2023-02-26T20:40:28.475Z,15.45
2023-02-26T20:55:30.655Z,14.20
2023-02-26T21:10:32.966Z,14.82
2023-02-26T21:25:35.077Z,14.13
2023-02-26T21:40:37.713Z,15.85
2023-02-26T21:55:39.805Z,16.58
2023-02-26T22:10:41.782Z,20.17
2023-02-26T22:25:43.887Z,19.10
2023-02-26T22:40:45.841Z,18.95
2023-02-26T22:55:48.130Z,21.52
2023-02-26T23:10:50.342Z,25.30
2023-02-26T23:25:53.218Z,24.30
2023-02-26T23:40:58.373Z,21.50
2023-02-26T23:56:01.410Z,18.13
